sensor_id;sensor_type;location;lat;lon;timestamp;P1;durP1;ratioP1;P2;durP2;ratioP2
36671;SDS011;22663;47.412;9.742;2022-12-07T00:00:44;13.77;;;7.75;;
36671;SDS011;22663;47.412;9.742;2022-12-07T00:03:10;13.32;;;7.45;;
36671;SDS011;22663;47.412;9.742;2022-12-07T00:05:36;14.25;;;8.15;;
36671;SDS011;22663;47.412;9.742;2022-12-07T00:08:02;15.15;;;8.48;;
36671;SDS011;22663;47.412;9.742;2022-12-07T00:10:28;13.35;;;7.80;;
36671;SDS011;22663;47.412;9.742;2022-12-07T00:12:54;14.93;;;9.18;;
36671;SDS011;22663;47.412;9.742;2022-12-07T00:15:20;16.15;;;9.13;;
36671;SDS011;22663;47.412;9.742;2022-12-07T00:17:46;15.38;;;9.52;;
36671;SDS011;22663;47.412;9.742;2022-12-07T00:20:12;14.27;;;8.63;;
36671;SDS011;22663;47.412;9.742;2022-12-07T00:22:38;13.70;;;7.47;;
36671;SDS011;22663;47.412;9.742;2022-12-07T00:25:04;11.63;;;7.35;;
36671;SDS011;22663;47.412;9.742;2022-12-07T00:27:30;13.68;;;7.72;;
36671;SDS011;22663;47.412;9.742;2022-12-07T00:29:56;11.43;;;7.28;;
36671;SDS011;22663;47.412;9.742;2022-12-07T00:32:22;11.57;;;7.35;;
36671;SDS011;22663;47.412;9.742;2022-12-07T00:34:48;12.18;;;7.13;;
36671;SDS011;22663;47.412;9.742;2022-12-07T00:37:14;12.43;;;7.43;;
36671;SDS011;22663;47.412;9.742;2022-12-07T00:39:40;11.55;;;6.80;;
36671;SDS011;22663;47.412;9.742;2022-12-07T00:42:06;12.07;;;7.05;;
36671;SDS011;22663;47.412;9.742;2022-12-07T00:44:32;13.45;;;7.88;;
36671;SDS011;22663;47.412;9.742;2022-12-07T00:46:58;13.00;;;7.55;;
36671;SDS011;22663;47.412;9.742;2022-12-07T00:49:24;16.17;;;9.40;;
36671;SDS011;22663;47.412;9.742;2022-12-07T00:51:51;18.70;;;10.65;;
36671;SDS011;22663;47.412;9.742;2022-12-07T00:54:17;15.57;;;9.43;;
36671;SDS011;22663;47.412;9.742;2022-12-07T00:56:43;14.82;;;9.00;;
36671;SDS011;22663;47.412;9.742;2022-12-07T00:59:10;16.23;;;10.27;;
36671;SDS011;22663;47.412;9.742;2022-12-07T01:01:38;13.50;;;8.18;;
36671;SDS011;22663;47.412;9.742;2022-12-07T01:04:04;13.95;;;8.10;;
36671;SDS011;22663;47.412;9.742;2022-12-07T01:06:30;12.55;;;7.82;;
36671;SDS011;22663;47.412;9.742;2022-12-07T01:08:57;14.75;;;8.77;;
36671;SDS011;22663;47.412;9.742;2022-12-07T01:11:24;13.32;;;7.50;;
36671;SDS011;22663;47.412;9.742;2022-12-07T01:13:51;9.63;;;6.53;;
36671;SDS011;22663;47.412;9.742;2022-12-07T01:16:18;10.75;;;6.80;;
36671;SDS011;22663;47.412;9.742;2022-12-07T01:18:49;9.95;;;6.88;;
36671;SDS011;22663;47.412;9.742;2022-12-07T01:21:18;10.52;;;7.13;;
36671;SDS011;22663;47.412;9.742;2022-12-07T01:23:45;12.82;;;7.35;;
36671;SDS011;22663;47.412;9.742;2022-12-07T01:26:14;12.13;;;7.32;;
36671;SDS011;22663;47.412;9.742;2022-12-07T01:28:40;11.23;;;7.50;;
36671;SDS011;22663;47.412;9.742;2022-12-07T01:31:07;14.43;;;7.93;;
36671;SDS011;22663;47.412;9.742;2022-12-07T01:33:35;12.05;;;7.72;;
36671;SDS011;22663;47.412;9.742;2022-12-07T01:36:06;14.77;;;8.65;;
36671;SDS011;22663;47.412;9.742;2022-12-07T01:38:33;11.35;;;7.43;;
36671;SDS011;22663;47.412;9.742;2022-12-07T01:41:00;13.52;;;7.65;;
36671;SDS011;22663;47.412;9.742;2022-12-07T01:43:27;13.07;;;7.75;;
36671;SDS011;22663;47.412;9.742;2022-12-07T01:45:54;12.82;;;7.15;;
36671;SDS011;22663;47.412;9.742;2022-12-07T01:48:31;11.50;;;7.35;;
36671;SDS011;22663;47.412;9.742;2022-12-07T01:51:00;11.40;;;7.13;;
36671;SDS011;22663;47.412;9.742;2022-12-07T01:53:27;10.35;;;6.95;;
36671;SDS011;22663;47.412;9.742;2022-12-07T01:55:55;8.90;;;6.13;;
36671;SDS011;22663;47.412;9.742;2022-12-07T01:58:22;10.73;;;6.18;;
36671;SDS011;22663;47.412;9.742;2022-12-07T02:00:49;10.55;;;5.90;;
36671;SDS011;22663;47.412;9.742;2022-12-07T02:03:17;7.53;;;4.95;;
36671;SDS011;22663;47.412;9.742;2022-12-07T02:05:44;8.73;;;5.28;;
36671;SDS011;22663;47.412;9.742;2022-12-07T02:08:12;9.10;;;5.55;;
36671;SDS011;22663;47.412;9.742;2022-12-07T02:10:38;12.07;;;5.22;;
36671;SDS011;22663;47.412;9.742;2022-12-07T02:13:06;8.98;;;5.50;;
36671;SDS011;22663;47.412;9.742;2022-12-07T02:23:27;10.40;;;6.55;;
36671;SDS011;22663;47.412;9.742;2022-12-07T02:31:17;11.05;;;6.90;;
36671;SDS011;22663;47.412;9.742;2022-12-07T02:33:46;9.73;;;6.25;;
36671;SDS011;22663;47.412;9.742;2022-12-07T02:38:49;12.70;;;6.07;;
36671;SDS011;22663;47.412;9.742;2022-12-07T02:41:22;10.60;;;6.78;;
36671;SDS011;22663;47.412;9.742;2022-12-07T02:43:52;9.60;;;6.50;;
36671;SDS011;22663;47.412;9.742;2022-12-07T02:46:21;9.95;;;5.70;;
36671;SDS011;22663;47.412;9.742;2022-12-07T02:48:48;10.38;;;5.65;;
36671;SDS011;22663;47.412;9.742;2022-12-07T02:51:17;10.70;;;6.53;;
36671;SDS011;22663;47.412;9.742;2022-12-07T02:53:43;12.55;;;6.00;;
36671;SDS011;22663;47.412;9.742;2022-12-07T03:03:57;9.48;;;5.43;;
36671;SDS011;22663;47.412;9.742;2022-12-07T03:06:35;9.00;;;5.55;;
36671;SDS011;22663;47.412;9.742;2022-12-07T03:11:46;11.07;;;6.03;;
36671;SDS011;22663;47.412;9.742;2022-12-07T03:14:35;9.38;;;5.35;;
36671;SDS011;22663;47.412;9.742;2022-12-07T03:17:05;11.15;;;6.07;;
36671;SDS011;22663;47.412;9.742;2022-12-07T03:19:32;8.98;;;5.57;;
36671;SDS011;22663;47.412;9.742;2022-12-07T03:22:00;7.30;;;5.63;;
36671;SDS011;22663;47.412;9.742;2022-12-07T03:24:29;8.18;;;5.15;;
36671;SDS011;22663;47.412;9.742;2022-12-07T03:27:07;9.95;;;5.75;;
36671;SDS011;22663;47.412;9.742;2022-12-07T03:29:34;9.80;;;5.75;;
36671;SDS011;22663;47.412;9.742;2022-12-07T03:32:36;8.18;;;4.93;;
36671;SDS011;22663;47.412;9.742;2022-12-07T03:35:00;12.15;;;5.35;;
36671;SDS011;22663;47.412;9.742;2022-12-07T03:37:32;9.00;;;5.72;;
36671;SDS011;22663;47.412;9.742;2022-12-07T03:42:28;10.63;;;5.30;;
36671;SDS011;22663;47.412;9.742;2022-12-07T03:44:54;10.60;;;5.43;;
36671;SDS011;22663;47.412;9.742;2022-12-07T03:49:51;11.32;;;5.70;;
36671;SDS011;22663;47.412;9.742;2022-12-07T03:55:06;9.15;;;5.60;;
36671;SDS011;22663;47.412;9.742;2022-12-07T03:57:34;8.65;;;5.35;;
36671;SDS011;22663;47.412;9.742;2022-12-07T04:00:03;12.68;;;4.72;;
36671;SDS011;22663;47.412;9.742;2022-12-07T04:02:29;7.40;;;5.47;;
36671;SDS011;22663;47.412;9.742;2022-12-07T04:04:56;9.45;;;4.72;;
36671;SDS011;22663;47.412;9.742;2022-12-07T04:07:22;9.43;;;4.82;;
36671;SDS011;22663;47.412;9.742;2022-12-07T04:09:48;7.35;;;4.50;;
36671;SDS011;22663;47.412;9.742;2022-12-07T04:12:14;6.47;;;4.60;;
36671;SDS011;22663;47.412;9.742;2022-12-07T04:14:40;10.60;;;4.82;;
36671;SDS011;22663;47.412;9.742;2022-12-07T04:17:06;8.05;;;4.40;;
36671;SDS011;22663;47.412;9.742;2022-12-07T04:19:33;7.30;;;4.15;;
36671;SDS011;22663;47.412;9.742;2022-12-07T04:22:02;6.60;;;4.45;;
36671;SDS011;22663;47.412;9.742;2022-12-07T04:24:29;7.03;;;4.75;;
36671;SDS011;22663;47.412;9.742;2022-12-07T04:26:55;6.45;;;4.47;;
36671;SDS011;22663;47.412;9.742;2022-12-07T04:29:22;6.88;;;4.28;;
36671;SDS011;22663;47.412;9.742;2022-12-07T04:31:48;9.55;;;5.32;;
36671;SDS011;22663;47.412;9.742;2022-12-07T04:34:14;7.32;;;4.60;;
36671;SDS011;22663;47.412;9.742;2022-12-07T04:36:40;6.10;;;4.40;;
36671;SDS011;22663;47.412;9.742;2022-12-07T04:39:07;8.50;;;4.90;;
36671;SDS011;22663;47.412;9.742;2022-12-07T04:41:33;8.05;;;5.13;;
36671;SDS011;22663;47.412;9.742;2022-12-07T04:44:00;8.68;;;4.78;;
36671;SDS011;22663;47.412;9.742;2022-12-07T04:46:27;9.05;;;4.97;;
36671;SDS011;22663;47.412;9.742;2022-12-07T04:48:54;9.07;;;5.72;;
36671;SDS011;22663;47.412;9.742;2022-12-07T04:51:22;8.98;;;4.85;;
36671;SDS011;22663;47.412;9.742;2022-12-07T04:53:48;8.15;;;5.50;;
36671;SDS011;22663;47.412;9.742;2022-12-07T04:56:15;6.88;;;4.75;;
36671;SDS011;22663;47.412;9.742;2022-12-07T04:58:42;8.82;;;5.07;;
36671;SDS011;22663;47.412;9.742;2022-12-07T05:01:09;9.32;;;4.70;;
36671;SDS011;22663;47.412;9.742;2022-12-07T05:03:35;7.38;;;5.20;;
36671;SDS011;22663;47.412;9.742;2022-12-07T05:06:02;7.07;;;4.95;;
36671;SDS011;22663;47.412;9.742;2022-12-07T05:08:28;9.10;;;5.60;;
36671;SDS011;22663;47.412;9.742;2022-12-07T05:10:54;9.27;;;5.13;;
36671;SDS011;22663;47.412;9.742;2022-12-07T05:13:20;8.98;;;5.50;;
36671;SDS011;22663;47.412;9.742;2022-12-07T05:15:47;9.95;;;5.32;;
36671;SDS011;22663;47.412;9.742;2022-12-07T05:18:13;12.75;;;6.07;;
36671;SDS011;22663;47.412;9.742;2022-12-07T05:20:40;9.00;;;5.65;;
36671;SDS011;22663;47.412;9.742;2022-12-07T05:23:06;10.07;;;5.60;;
36671;SDS011;22663;47.412;9.742;2022-12-07T05:25:32;8.02;;;5.32;;
36671;SDS011;22663;47.412;9.742;2022-12-07T05:27:58;8.95;;;5.50;;
36671;SDS011;22663;47.412;9.742;2022-12-07T05:30:25;7.68;;;5.00;;
36671;SDS011;22663;47.412;9.742;2022-12-07T05:32:51;9.65;;;5.68;;
36671;SDS011;22663;47.412;9.742;2022-12-07T05:35:17;9.38;;;5.60;;
36671;SDS011;22663;47.412;9.742;2022-12-07T05:37:44;8.73;;;5.40;;
36671;SDS011;22663;47.412;9.742;2022-12-07T05:40:10;9.75;;;6.15;;
36671;SDS011;22663;47.412;9.742;2022-12-07T05:42:37;8.57;;;5.50;;
36671;SDS011;22663;47.412;9.742;2022-12-07T05:45:03;10.55;;;5.53;;
36671;SDS011;22663;47.412;9.742;2022-12-07T05:47:29;12.32;;;6.22;;
36671;SDS011;22663;47.412;9.742;2022-12-07T05:49:55;10.32;;;6.15;;
36671;SDS011;22663;47.412;9.742;2022-12-07T05:52:21;11.45;;;6.80;;
36671;SDS011;22663;47.412;9.742;2022-12-07T05:54:47;11.32;;;6.50;;
36671;SDS011;22663;47.412;9.742;2022-12-07T05:57:13;9.95;;;6.60;;
36671;SDS011;22663;47.412;9.742;2022-12-07T05:59:39;11.52;;;7.45;;
36671;SDS011;22663;47.412;9.742;2022-12-07T06:02:07;11.27;;;7.05;;
36671;SDS011;22663;47.412;9.742;2022-12-07T06:04:35;11.25;;;7.00;;
36671;SDS011;22663;47.412;9.742;2022-12-07T06:07:02;16.77;;;8.82;;
36671;SDS011;22663;47.412;9.742;2022-12-07T06:09:28;15.93;;;9.20;;
36671;SDS011;22663;47.412;9.742;2022-12-07T06:11:55;16.65;;;8.35;;
36671;SDS011;22663;47.412;9.742;2022-12-07T06:14:40;14.07;;;8.95;;
36671;SDS011;22663;47.412;9.742;2022-12-07T06:17:06;13.18;;;7.93;;
36671;SDS011;22663;47.412;9.742;2022-12-07T06:19:32;12.30;;;8.27;;
36671;SDS011;22663;47.412;9.742;2022-12-07T06:21:59;10.95;;;7.10;;
36671;SDS011;22663;47.412;9.742;2022-12-07T06:24:25;13.93;;;7.70;;
36671;SDS011;22663;47.412;9.742;2022-12-07T06:26:51;12.88;;;8.32;;
36671;SDS011;22663;47.412;9.742;2022-12-07T06:29:17;13.32;;;7.80;;
36671;SDS011;22663;47.412;9.742;2022-12-07T06:31:44;14.35;;;7.65;;
36671;SDS011;22663;47.412;9.742;2022-12-07T06:34:11;14.88;;;7.80;;
36671;SDS011;22663;47.412;9.742;2022-12-07T06:36:38;14.05;;;7.60;;
36671;SDS011;22663;47.412;9.742;2022-12-07T06:39:04;14.00;;;8.63;;
36671;SDS011;22663;47.412;9.742;2022-12-07T06:41:31;13.70;;;9.32;;
36671;SDS011;22663;47.412;9.742;2022-12-07T06:43:57;14.80;;;9.15;;
36671;SDS011;22663;47.412;9.742;2022-12-07T06:46:23;17.02;;;10.57;;
36671;SDS011;22663;47.412;9.742;2022-12-07T06:48:49;18.75;;;11.40;;
36671;SDS011;22663;47.412;9.742;2022-12-07T06:51:15;15.88;;;10.20;;
36671;SDS011;22663;47.412;9.742;2022-12-07T06:53:42;17.95;;;10.63;;
36671;SDS011;22663;47.412;9.742;2022-12-07T06:56:08;16.25;;;10.63;;
36671;SDS011;22663;47.412;9.742;2022-12-07T06:58:34;21.13;;;11.75;;
36671;SDS011;22663;47.412;9.742;2022-12-07T07:01:00;18.23;;;10.48;;
36671;SDS011;22663;47.412;9.742;2022-12-07T07:03:26;19.65;;;11.55;;
36671;SDS011;22663;47.412;9.742;2022-12-07T07:05:52;20.40;;;10.80;;
36671;SDS011;22663;47.412;9.742;2022-12-07T07:08:18;21.10;;;11.75;;
36671;SDS011;22663;47.412;9.742;2022-12-07T07:10:44;19.77;;;11.30;;
36671;SDS011;22663;47.412;9.742;2022-12-07T07:13:10;19.50;;;11.30;;
36671;SDS011;22663;47.412;9.742;2022-12-07T07:15:37;15.95;;;10.27;;
36671;SDS011;22663;47.412;9.742;2022-12-07T07:18:03;16.70;;;10.55;;
36671;SDS011;22663;47.412;9.742;2022-12-07T07:20:29;18.67;;;11.07;;
36671;SDS011;22663;47.412;9.742;2022-12-07T07:22:55;20.67;;;11.15;;
36671;SDS011;22663;47.412;9.742;2022-12-07T07:25:22;16.75;;;9.85;;
36671;SDS011;22663;47.412;9.742;2022-12-07T07:27:48;16.52;;;10.15;;
36671;SDS011;22663;47.412;9.742;2022-12-07T07:30:14;16.23;;;9.88;;
36671;SDS011;22663;47.412;9.742;2022-12-07T07:32:40;16.35;;;9.98;;
36671;SDS011;22663;47.412;9.742;2022-12-07T07:35:07;18.92;;;11.15;;
36671;SDS011;22663;47.412;9.742;2022-12-07T07:37:33;16.35;;;11.18;;
36671;SDS011;22663;47.412;9.742;2022-12-07T07:39:59;17.05;;;9.60;;
36671;SDS011;22663;47.412;9.742;2022-12-07T07:42:25;16.52;;;9.43;;
36671;SDS011;22663;47.412;9.742;2022-12-07T07:44:51;16.90;;;10.02;;
36671;SDS011;22663;47.412;9.742;2022-12-07T07:47:17;13.80;;;8.85;;
36671;SDS011;22663;47.412;9.742;2022-12-07T07:49:43;14.98;;;9.10;;
36671;SDS011;22663;47.412;9.742;2022-12-07T07:52:10;16.45;;;9.57;;
36671;SDS011;22663;47.412;9.742;2022-12-07T07:54:36;14.73;;;9.50;;
36671;SDS011;22663;47.412;9.742;2022-12-07T07:57:02;13.27;;;8.65;;
36671;SDS011;22663;47.412;9.742;2022-12-07T07:59:28;14.45;;;9.55;;
36671;SDS011;22663;47.412;9.742;2022-12-07T08:01:54;13.23;;;8.85;;
36671;SDS011;22663;47.412;9.742;2022-12-07T08:04:20;19.45;;;10.07;;
36671;SDS011;22663;47.412;9.742;2022-12-07T08:06:46;16.98;;;9.38;;
36671;SDS011;22663;47.412;9.742;2022-12-07T08:09:12;17.48;;;9.48;;
36671;SDS011;22663;47.412;9.742;2022-12-07T08:11:41;16.13;;;9.82;;
36671;SDS011;22663;47.412;9.742;2022-12-07T08:14:07;16.23;;;9.00;;
36671;SDS011;22663;47.412;9.742;2022-12-07T08:16:33;18.35;;;9.90;;
36671;SDS011;22663;47.412;9.742;2022-12-07T08:18:59;14.77;;;9.57;;
36671;SDS011;22663;47.412;9.742;2022-12-07T08:21:25;14.82;;;9.77;;
36671;SDS011;22663;47.412;9.742;2022-12-07T08:23:51;16.83;;;10.05;;
36671;SDS011;22663;47.412;9.742;2022-12-07T08:26:17;15.63;;;10.05;;
36671;SDS011;22663;47.412;9.742;2022-12-07T08:28:44;19.45;;;9.43;;
36671;SDS011;22663;47.412;9.742;2022-12-07T08:31:11;18.10;;;9.85;;
36671;SDS011;22663;47.412;9.742;2022-12-07T08:33:38;15.35;;;9.82;;
36671;SDS011;22663;47.412;9.742;2022-12-07T08:36:05;18.38;;;9.95;;
36671;SDS011;22663;47.412;9.742;2022-12-07T08:38:31;15.98;;;9.52;;
36671;SDS011;22663;47.412;9.742;2022-12-07T08:40:58;13.00;;;9.23;;
36671;SDS011;22663;47.412;9.742;2022-12-07T08:43:24;15.15;;;9.73;;
36671;SDS011;22663;47.412;9.742;2022-12-07T08:46:03;17.35;;;10.75;;
36671;SDS011;22663;47.412;9.742;2022-12-07T08:48:30;18.02;;;9.57;;
36671;SDS011;22663;47.412;9.742;2022-12-07T08:50:57;17.20;;;9.73;;
36671;SDS011;22663;47.412;9.742;2022-12-07T08:53:23;16.95;;;9.82;;
36671;SDS011;22663;47.412;9.742;2022-12-07T08:55:49;17.83;;;9.73;;
36671;SDS011;22663;47.412;9.742;2022-12-07T08:58:15;15.15;;;9.57;;
36671;SDS011;22663;47.412;9.742;2022-12-07T09:00:41;15.23;;;8.52;;
36671;SDS011;22663;47.412;9.742;2022-12-07T09:03:08;17.25;;;9.00;;
36671;SDS011;22663;47.412;9.742;2022-12-07T09:05:34;16.50;;;9.27;;
36671;SDS011;22663;47.412;9.742;2022-12-07T09:08:00;15.52;;;8.95;;
36671;SDS011;22663;47.412;9.742;2022-12-07T09:10:27;12.98;;;8.60;;
36671;SDS011;22663;47.412;9.742;2022-12-07T09:12:54;13.95;;;8.63;;
36671;SDS011;22663;47.412;9.742;2022-12-07T09:15:20;13.85;;;8.20;;
36671;SDS011;22663;47.412;9.742;2022-12-07T09:17:46;14.93;;;8.60;;
36671;SDS011;22663;47.412;9.742;2022-12-07T09:20:12;13.05;;;7.90;;
36671;SDS011;22663;47.412;9.742;2022-12-07T09:22:38;13.80;;;8.35;;
36671;SDS011;22663;47.412;9.742;2022-12-07T09:25:04;16.65;;;8.75;;
36671;SDS011;22663;47.412;9.742;2022-12-07T09:27:31;13.15;;;8.38;;
36671;SDS011;22663;47.412;9.742;2022-12-07T09:29:57;13.30;;;8.20;;
36671;SDS011;22663;47.412;9.742;2022-12-07T09:32:23;16.70;;;9.07;;
36671;SDS011;22663;47.412;9.742;2022-12-07T09:34:49;15.38;;;8.98;;
36671;SDS011;22663;47.412;9.742;2022-12-07T09:37:15;14.30;;;8.93;;
36671;SDS011;22663;47.412;9.742;2022-12-07T09:39:41;14.40;;;8.88;;
36671;SDS011;22663;47.412;9.742;2022-12-07T09:42:07;13.82;;;9.15;;
36671;SDS011;22663;47.412;9.742;2022-12-07T09:44:36;11.73;;;8.65;;
36671;SDS011;22663;47.412;9.742;2022-12-07T09:47:02;15.63;;;9.10;;
36671;SDS011;22663;47.412;9.742;2022-12-07T09:49:29;14.38;;;7.97;;
36671;SDS011;22663;47.412;9.742;2022-12-07T09:52:17;13.68;;;7.78;;
36671;SDS011;22663;47.412;9.742;2022-12-07T09:54:45;13.82;;;7.75;;
36671;SDS011;22663;47.412;9.742;2022-12-07T09:57:11;12.32;;;7.78;;
36671;SDS011;22663;47.412;9.742;2022-12-07T09:59:38;15.88;;;8.10;;
36671;SDS011;22663;47.412;9.742;2022-12-07T10:04:49;12.05;;;7.53;;
36671;SDS011;22663;47.412;9.742;2022-12-07T10:07:15;13.50;;;7.60;;
36671;SDS011;22663;47.412;9.742;2022-12-07T10:09:41;14.60;;;7.75;;
36671;SDS011;22663;47.412;9.742;2022-12-07T10:12:09;14.15;;;7.88;;
36671;SDS011;22663;47.412;9.742;2022-12-07T10:14:36;12.15;;;7.20;;
36671;SDS011;22663;47.412;9.742;2022-12-07T10:17:02;11.73;;;6.88;;
36671;SDS011;22663;47.412;9.742;2022-12-07T10:19:30;11.85;;;7.03;;
36671;SDS011;22663;47.412;9.742;2022-12-07T10:24:25;12.68;;;7.35;;
36671;SDS011;22663;47.412;9.742;2022-12-07T10:26:51;13.05;;;7.65;;
36671;SDS011;22663;47.412;9.742;2022-12-07T10:29:34;12.40;;;7.72;;
36671;SDS011;22663;47.412;9.742;2022-12-07T10:32:03;10.45;;;7.13;;
36671;SDS011;22663;47.412;9.742;2022-12-07T10:34:31;14.73;;;7.65;;
36671;SDS011;22663;47.412;9.742;2022-12-07T10:39:49;11.93;;;7.63;;
36671;SDS011;22663;47.412;9.742;2022-12-07T10:42:19;13.23;;;7.93;;
36671;SDS011;22663;47.412;9.742;2022-12-07T10:44:46;12.05;;;7.45;;
36671;SDS011;22663;47.412;9.742;2022-12-07T10:55:12;12.85;;;7.70;;
36671;SDS011;22663;47.412;9.742;2022-12-07T10:57:43;14.43;;;8.13;;
36671;SDS011;22663;47.412;9.742;2022-12-07T11:02:52;12.90;;;7.72;;
36671;SDS011;22663;47.412;9.742;2022-12-07T11:08:11;15.23;;;8.98;;
36671;SDS011;22663;47.412;9.742;2022-12-07T11:33:46;14.05;;;8.70;;
36671;SDS011;22663;47.412;9.742;2022-12-07T11:38:43;20.65;;;8.50;;
36671;SDS011;22663;47.412;9.742;2022-12-07T11:41:10;13.30;;;7.53;;
36671;SDS011;22663;47.412;9.742;2022-12-07T11:43:51;15.30;;;8.50;;
36671;SDS011;22663;47.412;9.742;2022-12-07T11:46:18;13.73;;;7.95;;
36671;SDS011;22663;47.412;9.742;2022-12-07T11:49:00;18.30;;;8.68;;
36671;SDS011;22663;47.412;9.742;2022-12-07T11:51:28;13.60;;;8.38;;
36671;SDS011;22663;47.412;9.742;2022-12-07T11:54:01;14.88;;;9.45;;
36671;SDS011;22663;47.412;9.742;2022-12-07T11:56:28;16.92;;;9.63;;
36671;SDS011;22663;47.412;9.742;2022-12-07T12:01:57;17.20;;;9.95;;
36671;SDS011;22663;47.412;9.742;2022-12-07T12:04:31;14.77;;;8.75;;
36671;SDS011;22663;47.412;9.742;2022-12-07T12:06:58;16.25;;;9.50;;
36671;SDS011;22663;47.412;9.742;2022-12-07T12:17:09;20.48;;;10.18;;
36671;SDS011;22663;47.412;9.742;2022-12-07T12:22:23;17.42;;;10.73;;
36671;SDS011;22663;47.412;9.742;2022-12-07T12:24:52;20.85;;;10.35;;
36671;SDS011;22663;47.412;9.742;2022-12-07T12:29:50;16.05;;;10.13;;
36671;SDS011;22663;47.412;9.742;2022-12-07T12:32:18;18.45;;;10.38;;
36671;SDS011;22663;47.412;9.742;2022-12-07T12:35:03;23.83;;;11.68;;
36671;SDS011;22663;47.412;9.742;2022-12-07T12:37:45;17.35;;;11.43;;
36671;SDS011;22663;47.412;9.742;2022-12-07T12:42:44;19.70;;;11.68;;
36671;SDS011;22663;47.412;9.742;2022-12-07T12:45:18;20.30;;;11.27;;
36671;SDS011;22663;47.412;9.742;2022-12-07T12:50:24;19.63;;;11.68;;
36671;SDS011;22663;47.412;9.742;2022-12-07T12:52:52;19.88;;;11.88;;
36671;SDS011;22663;47.412;9.742;2022-12-07T12:55:22;16.15;;;10.50;;
36671;SDS011;22663;47.412;9.742;2022-12-07T13:01:31;20.00;;;10.98;;
36671;SDS011;22663;47.412;9.742;2022-12-07T13:03:35;20.50;;;11.27;;
36671;SDS011;22663;47.412;9.742;2022-12-07T13:06:44;22.58;;;11.80;;
36671;SDS011;22663;47.412;9.742;2022-12-07T13:08:54;24.42;;;13.18;;
36671;SDS011;22663;47.412;9.742;2022-12-07T13:11:29;17.45;;;10.95;;
36671;SDS011;22663;47.412;9.742;2022-12-07T13:16:41;20.02;;;12.40;;
36671;SDS011;22663;47.412;9.742;2022-12-07T13:21:52;18.83;;;11.00;;
36671;SDS011;22663;47.412;9.742;2022-12-07T13:24:18;21.38;;;11.48;;
36671;SDS011;22663;47.412;9.742;2022-12-07T13:26:44;16.45;;;10.65;;
36671;SDS011;22663;47.412;9.742;2022-12-07T13:29:14;19.40;;;11.05;;
36671;SDS011;22663;47.412;9.742;2022-12-07T13:36:51;18.42;;;10.68;;
36671;SDS011;22663;47.412;9.742;2022-12-07T13:39:19;18.52;;;10.52;;
36671;SDS011;22663;47.412;9.742;2022-12-07T13:41:51;15.98;;;10.43;;
36671;SDS011;22663;47.412;9.742;2022-12-07T13:44:17;20.38;;;10.50;;
36671;SDS011;22663;47.412;9.742;2022-12-07T13:49:17;18.40;;;10.40;;
36671;SDS011;22663;47.412;9.742;2022-12-07T13:51:44;17.58;;;10.60;;
36671;SDS011;22663;47.412;9.742;2022-12-07T13:54:11;20.95;;;10.93;;
36671;SDS011;22663;47.412;9.742;2022-12-07T13:56:37;20.35;;;10.82;;
36671;SDS011;22663;47.412;9.742;2022-12-07T13:59:25;20.02;;;11.40;;
36671;SDS011;22663;47.412;9.742;2022-12-07T14:01:52;18.92;;;11.60;;
36671;SDS011;22663;47.412;9.742;2022-12-07T14:04:19;20.27;;;10.98;;
36671;SDS011;22663;47.412;9.742;2022-12-07T14:06:53;22.38;;;11.25;;
36671;SDS011;22663;47.412;9.742;2022-12-07T14:09:21;25.08;;;12.65;;
36671;SDS011;22663;47.412;9.742;2022-12-07T14:11:47;27.33;;;13.10;;
36671;SDS011;22663;47.412;9.742;2022-12-07T14:14:16;23.77;;;13.15;;
36671;SDS011;22663;47.412;9.742;2022-12-07T14:16:43;23.33;;;11.60;;
36671;SDS011;22663;47.412;9.742;2022-12-07T14:22:09;23.52;;;12.43;;
36671;SDS011;22663;47.412;9.742;2022-12-07T14:24:42;22.98;;;12.07;;
36671;SDS011;22663;47.412;9.742;2022-12-07T14:27:16;22.80;;;12.30;;
36671;SDS011;22663;47.412;9.742;2022-12-07T14:29:42;22.42;;;12.45;;
36671;SDS011;22663;47.412;9.742;2022-12-07T14:35:09;21.95;;;11.15;;
36671;SDS011;22663;47.412;9.742;2022-12-07T14:37:36;20.48;;;11.40;;
36671;SDS011;22663;47.412;9.742;2022-12-07T14:40:02;21.55;;;12.20;;
36671;SDS011;22663;47.412;9.742;2022-12-07T14:42:29;20.25;;;11.48;;
36671;SDS011;22663;47.412;9.742;2022-12-07T14:44:56;19.80;;;11.27;;
36671;SDS011;22663;47.412;9.742;2022-12-07T14:47:23;20.95;;;11.32;;
36671;SDS011;22663;47.412;9.742;2022-12-07T14:49:49;20.65;;;10.98;;
36671;SDS011;22663;47.412;9.742;2022-12-07T14:52:36;18.77;;;9.90;;
36671;SDS011;22663;47.412;9.742;2022-12-07T14:55:01;23.33;;;11.45;;
36671;SDS011;22663;47.412;9.742;2022-12-07T14:57:28;23.95;;;13.40;;
36671;SDS011;22663;47.412;9.742;2022-12-07T14:59:54;21.10;;;10.85;;
36671;SDS011;22663;47.412;9.742;2022-12-07T15:02:20;20.38;;;11.82;;
36671;SDS011;22663;47.412;9.742;2022-12-07T15:04:46;23.00;;;12.27;;
36671;SDS011;22663;47.412;9.742;2022-12-07T15:07:16;24.20;;;11.77;;
36671;SDS011;22663;47.412;9.742;2022-12-07T15:12:10;21.23;;;11.65;;
36671;SDS011;22663;47.412;9.742;2022-12-07T15:14:36;21.10;;;11.65;;
36671;SDS011;22663;47.412;9.742;2022-12-07T15:17:02;20.63;;;11.13;;
36671;SDS011;22663;47.412;9.742;2022-12-07T15:19:28;20.23;;;11.27;;
36671;SDS011;22663;47.412;9.742;2022-12-07T15:21:54;21.40;;;10.93;;
36671;SDS011;22663;47.412;9.742;2022-12-07T15:24:20;19.92;;;11.48;;
36671;SDS011;22663;47.412;9.742;2022-12-07T15:26:48;22.00;;;11.40;;
36671;SDS011;22663;47.412;9.742;2022-12-07T15:29:15;19.23;;;9.80;;
36671;SDS011;22663;47.412;9.742;2022-12-07T15:31:41;17.90;;;9.48;;
36671;SDS011;22663;47.412;9.742;2022-12-07T15:34:08;24.70;;;11.40;;
36671;SDS011;22663;47.412;9.742;2022-12-07T15:36:34;18.60;;;10.68;;
36671;SDS011;22663;47.412;9.742;2022-12-07T15:39:00;18.35;;;10.27;;
36671;SDS011;22663;47.412;9.742;2022-12-07T15:41:27;18.80;;;10.13;;
36671;SDS011;22663;47.412;9.742;2022-12-07T15:43:53;20.02;;;10.27;;
36671;SDS011;22663;47.412;9.742;2022-12-07T15:46:38;18.00;;;9.68;;
36671;SDS011;22663;47.412;9.742;2022-12-07T15:49:15;18.05;;;8.90;;
36671;SDS011;22663;47.412;9.742;2022-12-07T15:51:42;17.33;;;9.70;;
36671;SDS011;22663;47.412;9.742;2022-12-07T15:54:11;20.40;;;10.10;;
36671;SDS011;22663;47.412;9.742;2022-12-07T15:56:38;22.00;;;11.48;;
36671;SDS011;22663;47.412;9.742;2022-12-07T15:59:04;21.17;;;11.20;;
36671;SDS011;22663;47.412;9.742;2022-12-07T16:01:30;20.65;;;11.48;;
36671;SDS011;22663;47.412;9.742;2022-12-07T16:03:56;23.15;;;11.70;;
36671;SDS011;22663;47.412;9.742;2022-12-07T16:06:24;24.80;;;12.27;;
36671;SDS011;22663;47.412;9.742;2022-12-07T16:08:50;23.02;;;13.75;;
36671;SDS011;22663;47.412;9.742;2022-12-07T16:11:16;24.05;;;13.18;;
36671;SDS011;22663;47.412;9.742;2022-12-07T16:13:42;24.77;;;12.85;;
36671;SDS011;22663;47.412;9.742;2022-12-07T16:16:13;22.67;;;12.68;;
36671;SDS011;22663;47.412;9.742;2022-12-07T16:18:39;23.30;;;12.48;;
36671;SDS011;22663;47.412;9.742;2022-12-07T16:21:05;22.45;;;12.27;;
36671;SDS011;22663;47.412;9.742;2022-12-07T16:23:32;23.35;;;12.23;;
36671;SDS011;22663;47.412;9.742;2022-12-07T16:26:11;23.10;;;12.68;;
36671;SDS011;22663;47.412;9.742;2022-12-07T16:28:38;21.23;;;12.38;;
36671;SDS011;22663;47.412;9.742;2022-12-07T16:31:05;25.15;;;12.88;;
36671;SDS011;22663;47.412;9.742;2022-12-07T16:33:33;23.30;;;13.57;;
36671;SDS011;22663;47.412;9.742;2022-12-07T16:36:00;23.95;;;13.68;;
36671;SDS011;22663;47.412;9.742;2022-12-07T16:38:26;25.67;;;13.85;;
36671;SDS011;22663;47.412;9.742;2022-12-07T16:40:52;24.95;;;14.98;;
36671;SDS011;22663;47.412;9.742;2022-12-07T16:43:18;30.70;;;16.77;;